createdAt,value
2022-07-28T00:00:18.259Z,54.60
2022-07-28T00:02:21.187Z,54.70
2022-07-28T00:04:24.017Z,54.80
2022-07-28T00:06:26.777Z,54.90
2022-07-28T00:08:30.885Z,55.10
2022-07-28T00:10:33.695Z,55.60
2022-07-28T00:12:36.618Z,55.60
2022-07-28T00:14:39.497Z,55.60
2022-07-28T00:16:42.479Z,55.50
2022-07-28T00:18:45.387Z,55.40
2022-07-28T00:20:48.167Z,55.40
2022-07-28T00:22:50.905Z,55.60
2022-07-28T00:24:54.952Z,55.40
2022-07-28T00:26:57.648Z,55.40
2022-07-28T00:29:00.528Z,55.30
2022-07-28T00:31:04.973Z,55.40
2022-07-28T00:33:08.806Z,55.50
2022-07-28T00:35:12.407Z,56.10
2022-07-28T00:37:17.815Z,55.80
2022-07-28T00:39:20.597Z,56.10
2022-07-28T00:41:23.750Z,56.50
2022-07-28T00:43:26.489Z,55.80
2022-07-28T00:45:29.209Z,56.00
2022-07-28T00:47:33.724Z,56.00
2022-07-28T00:49:36.997Z,55.80
2022-07-28T00:51:40.855Z,55.60
2022-07-28T00:53:44.033Z,56.00
2022-07-28T00:56:03.574Z,56.60
2022-07-28T00:58:10.800Z,56.50
2022-07-28T01:00:14.125Z,56.50
2022-07-28T01:02:17.621Z,56.50
2022-07-28T01:04:20.897Z,56.40
2022-07-28T01:06:51.252Z,56.40
2022-07-28T01:09:03.912Z,56.30
2022-07-28T01:11:12.973Z,56.00
2022-07-28T01:13:23.297Z,55.80
2022-07-28T01:15:31.885Z,55.80
2022-07-28T01:17:41.003Z,55.90
2022-07-28T01:19:49.907Z,55.90
2022-07-28T01:21:54.529Z,56.20
2022-07-28T01:24:10.895Z,56.30
2022-07-28T01:26:32.224Z,56.50
2022-07-28T01:28:51.563Z,56.50
2022-07-28T01:30:57.299Z,56.50
2022-07-28T01:33:03.471Z,56.40
2022-07-28T01:35:12.579Z,56.30
2022-07-28T01:37:20.787Z,56.50
2022-07-28T01:39:26.332Z,56.50
2022-07-28T01:41:32.505Z,56.50
2022-07-28T01:43:39.999Z,56.60
2022-07-28T01:45:44.923Z,56.60
2022-07-28T01:47:50.796Z,56.50
2022-07-28T01:49:56.281Z,56.50
2022-07-28T01:52:00.679Z,56.60
2022-07-28T01:54:04.549Z,56.80
2022-07-28T01:56:08.615Z,57.00
2022-07-28T01:58:13.911Z,56.90
2022-07-28T02:00:17.759Z,57.00
2022-07-28T02:02:22.714Z,57.00
2022-07-28T02:04:27.583Z,57.20
2022-07-28T02:06:31.570Z,57.10
2022-07-28T02:08:35.861Z,57.30
2022-07-28T02:10:42.045Z,57.40
2022-07-28T02:12:47.501Z,57.50
2022-07-28T02:14:51.803Z,57.20
2022-07-28T02:16:58.820Z,57.20
2022-07-28T02:19:03.290Z,57.20
2022-07-28T02:21:08.794Z,57.30
2022-07-28T02:23:15.506Z,57.30
2022-07-28T02:25:18.374Z,57.20
2022-07-28T02:27:25.564Z,57.50
2022-07-28T02:29:50.148Z,57.50
2022-07-28T02:31:58.189Z,57.40
2022-07-28T02:34:07.170Z,57.30
2022-07-28T02:36:16.583Z,57.50
2022-07-28T02:38:23.786Z,57.50
2022-07-28T02:40:31.571Z,57.50
2022-07-28T02:42:37.033Z,57.70
2022-07-28T02:44:43.625Z,57.60
2022-07-28T02:46:50.378Z,57.50
2022-07-28T02:49:02.220Z,57.50
2022-07-28T02:51:06.399Z,57.70
2022-07-28T02:53:15.434Z,57.90
2022-07-28T02:55:19.490Z,58.20
2022-07-28T02:57:24.022Z,58.10
2022-07-28T02:59:28.340Z,58.00
2022-07-28T03:01:31.980Z,58.10
2022-07-28T03:03:35.310Z,57.90
2022-07-28T03:05:38.255Z,57.90
2022-07-28T03:07:50.382Z,58.10
2022-07-28T03:09:55.485Z,58.10
2022-07-28T03:11:58.304Z,58.50
2022-07-28T03:14:01.855Z,58.40
2022-07-28T03:16:05.670Z,58.60
2022-07-28T03:18:08.563Z,58.70
2022-07-28T03:20:12.173Z,58.60
2022-07-28T03:22:15.196Z,58.80
2022-07-28T03:24:18.613Z,58.90
2022-07-28T03:26:31.557Z,58.60
2022-07-28T03:28:36.781Z,58.70
2022-07-28T03:30:43.887Z,58.40
2022-07-28T03:32:49.333Z,58.60
2022-07-28T03:34:52.403Z,58.60
2022-07-28T03:37:01.967Z,58.60
2022-07-28T03:39:08.623Z,58.90
2022-07-28T03:41:11.879Z,58.70
2022-07-28T03:43:17.442Z,58.90
2022-07-28T03:45:20.608Z,58.70
2022-07-28T03:47:24.174Z,59.00
2022-07-28T03:49:26.922Z,59.10
2022-07-28T03:51:29.809Z,59.20
2022-07-28T03:53:32.548Z,59.10
2022-07-28T03:55:35.290Z,59.20
2022-07-28T03:57:37.997Z,59.30
2022-07-28T03:59:42.103Z,59.60
2022-07-28T04:01:46.307Z,59.40
2022-07-28T04:03:49.054Z,59.10
2022-07-28T04:05:51.778Z,59.10
2022-07-28T04:07:54.795Z,59.30
2022-07-28T04:09:57.529Z,59.30
2022-07-28T04:12:00.297Z,59.40
2022-07-28T04:14:03.007Z,59.80
2022-07-28T04:16:08.007Z,59.80
2022-07-28T04:18:11.698Z,59.60
2022-07-28T04:20:14.390Z,59.50
2022-07-28T04:22:17.093Z,59.50
2022-07-28T04:24:20.133Z,59.60
2022-07-28T04:26:23.030Z,59.30
2022-07-28T04:28:25.789Z,59.40
2022-07-28T04:30:28.752Z,59.20
2022-07-28T04:32:33.045Z,59.70
2022-07-28T04:34:35.776Z,59.60
2022-07-28T04:36:42.152Z,59.90
2022-07-28T04:38:44.975Z,60.00
2022-07-28T04:40:48.169Z,60.20
2022-07-28T04:42:51.288Z,60.10
2022-07-28T04:44:54.002Z,60.40
2022-07-28T04:46:56.709Z,60.40
2022-07-28T04:49:00.872Z,60.40
2022-07-28T04:51:03.649Z,60.60
2022-07-28T04:53:06.378Z,60.50
2022-07-28T04:55:09.859Z,60.60
2022-07-28T04:57:12.854Z,60.90
2022-07-28T04:59:17.240Z,60.90
2022-07-28T05:01:21.740Z,61.10
2022-07-28T05:03:24.774Z,60.90
2022-07-28T05:05:29.210Z,61.10
2022-07-28T05:07:31.954Z,61.00
2022-07-28T05:09:34.752Z,60.80
2022-07-28T05:11:37.627Z,60.50
2022-07-28T05:13:40.360Z,60.20
2022-07-28T05:15:43.151Z,60.00
2022-07-28T05:17:45.975Z,59.90
2022-07-28T05:19:48.736Z,59.90
2022-07-28T05:21:52.782Z,59.80
2022-07-28T05:23:55.665Z,59.70
2022-07-28T05:25:58.401Z,59.50
2022-07-28T05:28:01.095Z,59.50
2022-07-28T05:30:04.070Z,59.40
2022-07-28T05:32:16.463Z,59.30
2022-07-28T05:34:20.354Z,59.30
2022-07-28T05:36:23.158Z,59.10
2022-07-28T05:38:28.161Z,59.20
2022-07-28T05:40:31.027Z,59.40
2022-07-28T05:42:35.934Z,59.40
2022-07-28T05:44:38.701Z,59.50
2022-07-28T05:46:41.406Z,59.50
2022-07-28T05:48:44.195Z,59.50
2022-07-28T05:50:47.651Z,59.40
2022-07-28T05:52:51.231Z,59.70
2022-07-28T05:54:55.654Z,59.50
2022-07-28T05:56:58.370Z,59.70
2022-07-28T05:59:01.093Z,59.60
2022-07-28T06:01:04.837Z,59.50
2022-07-28T06:03:07.845Z,59.40
2022-07-28T06:05:12.901Z,59.60
2022-07-28T06:07:15.607Z,59.70
2022-07-28T06:09:18.305Z,59.60
2022-07-28T06:11:23.192Z,60.80
2022-07-28T06:13:26.376Z,59.90
2022-07-28T06:15:29.239Z,59.80
2022-07-28T06:17:31.996Z,60.10
2022-07-28T06:19:35.073Z,60.00
2022-07-28T06:21:37.806Z,60.30
2022-07-28T06:23:40.611Z,60.40
2022-07-28T06:25:43.354Z,61.00
2022-07-28T06:27:48.685Z,62.10
2022-07-28T06:29:51.384Z,61.50
2022-07-28T06:31:54.143Z,61.10
2022-07-28T06:33:56.894Z,61.00
2022-07-28T06:35:59.625Z,60.90
2022-07-28T06:38:02.442Z,60.30
2022-07-28T06:40:07.270Z,60.10
2022-07-28T06:42:11.297Z,60.30
2022-07-28T06:44:15.717Z,60.00
2022-07-28T06:46:19.617Z,59.60
2022-07-28T06:48:24.694Z,59.60
2022-07-28T06:50:29.983Z,59.20
2022-07-28T06:52:33.249Z,58.70
2022-07-28T06:54:36.060Z,58.50
2022-07-28T06:56:39.606Z,58.60
2022-07-28T06:58:42.341Z,58.70
2022-07-28T07:00:50.650Z,58.80
2022-07-28T07:02:53.441Z,58.50
2022-07-28T07:04:56.224Z,58.50
2022-07-28T07:06:58.951Z,58.30
2022-07-28T07:09:01.744Z,58.40
2022-07-28T07:11:04.580Z,58.20
2022-07-28T07:13:07.434Z,57.90
2022-07-28T07:15:11.690Z,57.60
2022-07-28T07:17:15.746Z,57.60
2022-07-28T07:19:18.922Z,57.30
2022-07-28T07:21:21.768Z,57.40
2022-07-28T07:23:25.466Z,57.50
2022-07-28T07:25:28.329Z,57.40
2022-07-28T07:27:31.035Z,57.20
2022-07-28T07:29:33.942Z,56.80
2022-07-28T07:31:37.816Z,56.90
2022-07-28T07:33:41.963Z,56.40
2022-07-28T07:35:44.818Z,56.80
2022-07-28T07:37:47.577Z,56.70
2022-07-28T07:39:50.319Z,56.60
2022-07-28T07:41:53.061Z,56.50
2022-07-28T07:43:55.758Z,56.40
2022-07-28T07:45:58.479Z,55.40
2022-07-28T07:48:02.254Z,55.70
2022-07-28T07:50:07.501Z,55.80
2022-07-28T07:52:10.271Z,55.90
2022-07-28T07:54:13.593Z,55.50
2022-07-28T07:56:18.306Z,55.50
2022-07-28T07:58:21.472Z,55.70
2022-07-28T08:00:29.133Z,55.20
2022-07-28T08:02:32.468Z,54.20
2022-07-28T08:04:37.405Z,54.40
2022-07-28T08:06:42.767Z,55.00
2022-07-28T08:08:48.602Z,54.30
2022-07-28T08:10:51.972Z,53.70
2022-07-28T08:12:54.774Z,54.10
2022-07-28T08:14:57.571Z,54.20
2022-07-28T08:17:00.342Z,55.10
2022-07-28T08:19:03.243Z,54.40
2022-07-28T08:21:06.130Z,53.50
2022-07-28T08:23:10.282Z,53.70
2022-07-28T08:25:12.990Z,53.30
2022-07-28T08:27:15.793Z,53.40
2022-07-28T08:29:18.553Z,53.30
2022-07-28T08:31:22.136Z,53.80
2022-07-28T08:33:24.971Z,52.90
2022-07-28T08:35:33.573Z,52.50
2022-07-28T08:37:39.765Z,52.60
2022-07-28T08:39:44.001Z,52.40
2022-07-28T08:41:52.547Z,53.10
2022-07-28T08:43:57.373Z,52.60
2022-07-28T08:46:01.115Z,52.60
2022-07-28T08:48:09.361Z,52.10
2022-07-28T08:50:14.589Z,51.90
2022-07-28T08:52:20.885Z,51.70
2022-07-28T08:54:27.785Z,52.00
2022-07-28T08:56:32.802Z,52.30
2022-07-28T08:58:37.898Z,52.20
2022-07-28T09:00:40.795Z,51.70
2022-07-28T09:02:45.632Z,52.50
2022-07-28T09:04:49.145Z,52.40
2022-07-28T09:06:52.319Z,51.60
2022-07-28T09:08:55.105Z,51.40
2022-07-28T09:10:57.967Z,51.10
2022-07-28T09:13:02.256Z,51.30
2022-07-28T09:15:05.496Z,51.20
2022-07-28T09:17:08.374Z,50.80
2022-07-28T09:19:11.182Z,50.20
2022-07-28T09:21:15.282Z,50.30
2022-07-28T09:23:42.159Z,51.40
2022-07-28T09:25:41.272Z,50.70
2022-07-28T09:27:45.211Z,50.40
2022-07-28T09:29:58.567Z,50.40
2022-07-28T09:32:01.690Z,49.60
2022-07-28T09:34:06.307Z,49.10
2022-07-28T09:36:16.629Z,48.60
2022-07-28T09:38:20.966Z,49.10
2022-07-28T09:40:23.829Z,49.00
2022-07-28T09:42:26.833Z,49.00
2022-07-28T09:44:30.103Z,48.80
2022-07-28T09:46:34.965Z,48.60
2022-07-28T09:48:52.043Z,49.30
2022-07-28T09:51:13.695Z,49.50
2022-07-28T09:53:24.241Z,49.30
2022-07-28T09:55:35.220Z,49.00
2022-07-28T09:57:40.237Z,48.80
2022-07-28T09:59:50.513Z,48.80
2022-07-28T10:02:01.601Z,48.70
2022-07-28T10:04:05.165Z,48.00
2022-07-28T10:06:09.272Z,47.80
2022-07-28T10:08:12.109Z,47.60
2022-07-28T10:10:14.943Z,48.00
2022-07-28T10:12:20.748Z,47.00
2022-07-28T10:14:32.959Z,46.90
2022-07-28T10:16:38.203Z,47.40
2022-07-28T10:18:42.581Z,47.00
2022-07-28T10:20:45.737Z,47.30
2022-07-28T10:22:48.680Z,46.50
2022-07-28T10:24:54.239Z,47.30
2022-07-28T10:26:58.700Z,47.40
2022-07-28T10:29:06.434Z,46.80
2022-07-28T10:31:11.810Z,45.80
2022-07-28T10:33:17.121Z,46.90
2022-07-28T10:35:21.709Z,46.80
2022-07-28T10:37:27.769Z,46.30
2022-07-28T10:39:42.689Z,46.60
2022-07-28T10:41:46.103Z,46.00
2022-07-28T10:43:52.213Z,45.60
2022-07-28T10:46:05.449Z,45.60
2022-07-28T10:48:09.511Z,45.80
2022-07-28T10:50:13.847Z,45.90
2022-07-28T10:52:46.313Z,45.50
2022-07-28T10:54:50.388Z,45.50
2022-07-28T10:56:57.136Z,45.20
2022-07-28T10:59:12.191Z,44.90
2022-07-28T11:01:50.456Z,45.30
2022-07-28T11:03:53.689Z,45.10
2022-07-28T11:05:56.526Z,43.60
2022-07-28T11:08:03.114Z,44.90
2022-07-28T11:10:17.054Z,45.10
2022-07-28T11:12:46.256Z,44.90
2022-07-28T11:14:49.074Z,44.90
2022-07-28T11:17:12.628Z,43.80
2022-07-28T11:19:40.440Z,44.00
2022-07-28T11:22:22.496Z,44.40
2022-07-28T11:24:26.779Z,44.30
2022-07-28T11:26:41.677Z,43.90
2022-07-28T11:29:17.615Z,43.80
2022-07-28T11:31:55.347Z,44.00
2022-07-28T11:33:58.156Z,43.80
2022-07-28T11:36:02.226Z,44.20
2022-07-28T11:38:10.293Z,43.80
2022-07-28T11:40:35.196Z,43.10
2022-07-28T11:42:37.940Z,43.40
2022-07-28T11:44:41.448Z,43.70
2022-07-28T11:46:45.474Z,43.90
2022-07-28T11:49:08.397Z,43.40
2022-07-28T11:51:17.745Z,43.30
2022-07-28T11:53:23.918Z,42.70
2022-07-28T11:55:49.169Z,42.90
2022-07-28T11:57:53.841Z,42.90
2022-07-28T12:00:05.002Z,42.10
2022-07-28T12:02:07.937Z,43.00
2022-07-28T12:04:14.674Z,43.40
2022-07-28T12:06:28.981Z,43.50
2022-07-28T12:08:53.714Z,42.60
2022-07-28T12:10:57.306Z,42.60
2022-07-28T12:13:04.583Z,42.10
2022-07-28T12:15:08.347Z,42.20
2022-07-28T12:17:12.251Z,42.10
2022-07-28T12:19:17.376Z,43.00
2022-07-28T12:21:36.729Z,41.90
2022-07-28T12:23:46.205Z,42.20
2022-07-28T12:25:52.370Z,41.20
2022-07-28T12:27:56.088Z,41.40
2022-07-28T12:30:02.009Z,41.30
2022-07-28T12:32:06.800Z,41.10
2022-07-28T12:34:10.767Z,41.70
2022-07-28T12:36:14.806Z,41.80
2022-07-28T12:38:18.486Z,41.80
2022-07-28T12:40:27.475Z,41.90
2022-07-28T12:42:32.477Z,41.40
2022-07-28T12:44:36.547Z,41.50
2022-07-28T12:46:48.653Z,40.60
2022-07-28T12:48:52.313Z,40.60
2022-07-28T12:50:55.199Z,40.40
2022-07-28T12:53:05.727Z,40.90
2022-07-28T12:55:25.580Z,40.60
2022-07-28T12:57:46.189Z,39.70
2022-07-28T12:59:51.383Z,39.30
2022-07-28T13:01:57.643Z,39.90
2022-07-28T13:04:00.523Z,40.00
2022-07-28T13:06:11.567Z,40.20
2022-07-28T13:08:14.301Z,38.70
2022-07-28T13:10:17.166Z,38.80
2022-07-28T13:12:23.277Z,38.90
2022-07-28T13:14:42.287Z,39.10
2022-07-28T13:16:57.826Z,38.30
2022-07-28T13:19:05.643Z,38.30
2022-07-28T13:21:08.745Z,38.90
2022-07-28T13:23:13.522Z,39.10
2022-07-28T13:25:16.531Z,39.10
2022-07-28T13:27:19.274Z,38.90
2022-07-28T13:29:22.407Z,38.80
2022-07-28T13:31:25.233Z,39.20
2022-07-28T13:33:28.619Z,39.60
2022-07-28T13:35:32.767Z,40.30
2022-07-28T13:37:35.577Z,39.50
2022-07-28T13:39:38.603Z,38.40
2022-07-28T13:41:56.736Z,38.40
2022-07-28T13:44:01.592Z,38.40
2022-07-28T13:46:05.363Z,37.40
2022-07-28T13:48:08.539Z,38.10
2022-07-28T13:50:11.476Z,38.00
2022-07-28T13:52:33.223Z,38.10
2022-07-28T13:54:38.108Z,38.90
2022-07-28T13:56:41.815Z,36.60
2022-07-28T13:58:44.577Z,38.00
2022-07-28T14:00:47.413Z,37.90
2022-07-28T14:02:52.146Z,37.40
2022-07-28T14:04:54.970Z,37.10
2022-07-28T14:06:57.737Z,37.50
2022-07-28T14:09:04.225Z,38.10
2022-07-28T14:11:07.188Z,37.10
2022-07-28T14:13:10.632Z,37.10
2022-07-28T14:15:13.420Z,37.60
2022-07-28T14:17:39.961Z,37.50
2022-07-28T14:19:39.861Z,36.60
2022-07-28T14:21:42.700Z,37.40
2022-07-28T14:23:45.550Z,36.80
2022-07-28T14:25:50.928Z,37.50
2022-07-28T14:27:55.253Z,37.30
2022-07-28T14:29:58.008Z,37.60
2022-07-28T14:32:00.745Z,37.90
2022-07-28T14:34:03.755Z,37.90
2022-07-28T14:36:07.362Z,38.40
2022-07-28T14:40:33.123Z,37.70
2022-07-28T14:42:42.547Z,36.30
2022-07-28T14:44:45.400Z,37.30
2022-07-28T14:46:48.185Z,37.30
2022-07-28T14:48:51.005Z,36.60
2022-07-28T14:50:55.414Z,37.00
2022-07-28T14:52:58.778Z,37.60
2022-07-28T14:55:01.542Z,37.20
2022-07-28T14:57:04.763Z,37.00
2022-07-28T14:59:08.909Z,37.80
2022-07-28T15:01:11.674Z,37.40
2022-07-28T15:03:14.453Z,37.20
2022-07-28T15:05:17.245Z,37.00
2022-07-28T15:07:20.019Z,37.50
2022-07-28T15:09:23.574Z,37.60
2022-07-28T15:11:27.400Z,37.80
2022-07-28T15:13:30.160Z,37.80
2022-07-28T15:15:34.331Z,37.20
2022-07-28T15:17:37.553Z,37.00
2022-07-28T15:19:40.282Z,35.70
2022-07-28T15:21:45.714Z,36.70
2022-07-28T15:23:48.716Z,35.90
2022-07-28T15:25:53.127Z,36.20
2022-07-28T15:27:56.226Z,35.70
2022-07-28T15:29:59.877Z,36.10
2022-07-28T15:32:07.483Z,36.20
2022-07-28T15:34:13.817Z,35.90
2022-07-28T15:36:17.113Z,35.80
2022-07-28T15:38:19.825Z,34.90
2022-07-28T15:40:23.032Z,35.50
2022-07-28T15:42:25.830Z,34.90
2022-07-28T15:44:29.918Z,35.10
2022-07-28T15:46:33.370Z,35.00
2022-07-28T15:48:38.330Z,34.30
2022-07-28T15:50:45.347Z,34.50
2022-07-28T15:52:48.391Z,34.90
2022-07-28T15:54:51.193Z,33.80
2022-07-28T15:56:53.932Z,34.30
2022-07-28T15:58:57.275Z,34.60
2022-07-28T16:01:01.722Z,33.60
2022-07-28T16:03:06.854Z,33.20
2022-07-28T16:05:11.139Z,33.10
2022-07-28T16:07:24.124Z,33.40
2022-07-28T16:09:45.992Z,33.90
2022-07-28T16:11:49.542Z,34.00
2022-07-28T16:13:53.478Z,34.60
2022-07-28T16:15:56.301Z,33.80
2022-07-28T16:17:59.180Z,33.60
2022-07-28T16:20:02.979Z,34.00
2022-07-28T16:22:07.354Z,33.40
2022-07-28T16:24:10.333Z,34.00
2022-07-28T16:26:13.043Z,30.30
2022-07-28T16:28:16.233Z,30.30
2022-07-28T16:30:20.696Z,30.80
2022-07-28T16:32:23.711Z,29.20
2022-07-28T16:34:26.700Z,29.60
2022-07-28T16:36:30.122Z,28.70
2022-07-28T16:38:34.266Z,28.30
2022-07-28T16:40:37.306Z,27.50
2022-07-28T16:42:40.166Z,27.90
2022-07-28T16:44:43.642Z,27.70
2022-07-28T16:46:46.672Z,27.60
2022-07-28T16:48:49.586Z,26.50
2022-07-28T16:50:52.415Z,27.70
2022-07-28T16:52:55.694Z,27.60
2022-07-28T16:55:00.305Z,27.00
2022-07-28T16:57:03.854Z,27.50
2022-07-28T16:59:08.866Z,28.40
2022-07-28T17:01:12.706Z,28.00
2022-07-28T17:03:16.907Z,28.00
2022-07-28T17:05:19.855Z,28.40
2022-07-28T17:07:23.318Z,29.00
2022-07-28T17:09:26.705Z,29.00
2022-07-28T17:11:31.001Z,29.20
2022-07-28T17:13:33.999Z,29.30
2022-07-28T17:15:37.227Z,29.40
2022-07-28T17:17:40.159Z,29.40
2022-07-28T17:19:47.853Z,29.60
2022-07-28T17:21:50.737Z,30.00
2022-07-28T17:23:53.849Z,30.70
2022-07-28T17:26:35.577Z,30.70
2022-07-28T17:28:21.290Z,31.30
2022-07-28T17:30:24.202Z,31.30
2022-07-28T17:32:29.070Z,31.10
2022-07-28T17:34:34.309Z,32.20
2022-07-28T17:36:38.877Z,32.20
2022-07-28T17:38:44.964Z,32.40
2022-07-28T17:40:51.020Z,32.50
2022-07-28T17:42:54.177Z,33.00
2022-07-28T17:45:00.777Z,33.20
2022-07-28T17:47:04.689Z,33.40
2022-07-28T17:49:08.012Z,33.50
2022-07-28T17:51:11.088Z,33.80
2022-07-28T17:53:14.085Z,33.80
2022-07-28T17:55:57.614Z,33.50
2022-07-28T17:57:57.963Z,33.70
2022-07-28T18:00:02.201Z,33.70
2022-07-28T18:02:05.048Z,33.40
2022-07-28T18:04:07.783Z,33.30
2022-07-28T18:06:10.659Z,33.70
2022-07-28T18:08:14.289Z,33.30
2022-07-28T18:10:17.022Z,33.10
2022-07-28T18:12:23.060Z,33.10
2022-07-28T18:14:26.322Z,32.80
2022-07-28T18:16:30.502Z,32.50
2022-07-28T18:18:33.401Z,33.30
2022-07-28T18:20:37.788Z,34.20
2022-07-28T18:22:40.503Z,33.90
2022-07-28T18:24:43.246Z,33.90
2022-07-28T18:26:46.869Z,34.00
2022-07-28T18:28:49.696Z,34.40
2022-07-28T18:30:52.550Z,34.40
2022-07-28T18:32:56.839Z,35.00
2022-07-28T18:34:59.551Z,34.90
2022-07-28T18:37:02.337Z,34.80
2022-07-28T18:39:05.161Z,35.30
2022-07-28T18:41:07.936Z,35.30
2022-07-28T18:43:13.180Z,35.20
2022-07-28T18:45:16.877Z,35.50
2022-07-28T18:47:19.638Z,35.90
2022-07-28T18:49:25.011Z,36.10
2022-07-28T18:51:27.861Z,36.00
2022-07-28T18:53:30.734Z,36.20
2022-07-28T18:55:33.534Z,36.10
2022-07-28T18:57:36.372Z,36.30
2022-07-28T18:59:44.608Z,36.30
2022-07-28T19:01:49.486Z,36.50
2022-07-28T19:03:52.375Z,36.50
2022-07-28T19:05:56.614Z,36.50
2022-07-28T19:07:59.373Z,36.60
2022-07-28T19:10:02.721Z,36.90
2022-07-28T19:12:06.407Z,36.90
2022-07-28T19:14:10.054Z,36.80
2022-07-28T19:16:15.102Z,37.00
2022-07-28T19:18:17.966Z,37.20
2022-07-28T19:20:20.892Z,37.30
2022-07-28T19:22:25.669Z,37.50
2022-07-28T19:24:28.496Z,37.60
2022-07-28T19:26:31.362Z,37.80
2022-07-28T19:28:34.344Z,37.80
2022-07-28T19:30:37.230Z,38.30
2022-07-28T19:32:41.821Z,37.80
2022-07-28T19:34:44.859Z,38.00
2022-07-28T19:36:47.653Z,38.30
2022-07-28T19:38:51.762Z,38.20
2022-07-28T19:40:55.328Z,38.10
2022-07-28T19:42:58.188Z,38.20
2022-07-28T19:45:01.611Z,38.40
2022-07-28T19:47:04.470Z,38.40
2022-07-28T19:49:07.344Z,38.60
2022-07-28T19:51:10.151Z,38.80
2022-07-28T19:53:14.793Z,38.90
2022-07-28T19:55:19.308Z,38.90
2022-07-28T19:57:22.405Z,39.00
2022-07-28T19:59:25.441Z,39.10
2022-07-28T20:01:28.447Z,39.10
2022-07-28T20:04:00.758Z,39.30
2022-07-28T20:05:54.565Z,39.30
2022-07-28T20:07:57.287Z,39.30
2022-07-28T20:10:00.838Z,39.50
2022-07-28T20:12:05.565Z,39.60
2022-07-28T20:14:10.539Z,39.80
2022-07-28T20:16:13.374Z,40.10
2022-07-28T20:18:19.189Z,40.20
2022-07-28T20:20:22.085Z,40.50
2022-07-28T20:22:25.092Z,40.60
2022-07-28T20:24:27.878Z,40.90
2022-07-28T20:26:31.106Z,40.90
2022-07-28T20:28:35.212Z,41.00
2022-07-28T20:30:38.082Z,41.00
2022-07-28T20:32:42.221Z,41.00
2022-07-28T20:34:45.200Z,41.10
2022-07-28T20:36:48.009Z,41.30
2022-07-28T20:38:50.810Z,41.40
2022-07-28T20:40:53.538Z,41.50
2022-07-28T20:42:56.279Z,41.50
2022-07-28T20:45:00.406Z,41.80
2022-07-28T20:47:04.120Z,41.90
2022-07-28T20:49:07.051Z,42.10
2022-07-28T20:51:09.797Z,42.00
2022-07-28T20:53:13.121Z,42.00
2022-07-28T20:55:15.878Z,42.00
2022-07-28T20:57:19.090Z,42.10
2022-07-28T20:59:27.386Z,42.20
2022-07-28T21:01:32.160Z,42.20
2022-07-28T21:03:34.984Z,42.00
2022-07-28T21:05:38.302Z,42.10
2022-07-28T21:08:05.141Z,42.30
2022-07-28T21:10:05.902Z,42.30
2022-07-28T21:12:09.210Z,42.30
2022-07-28T21:14:12.090Z,42.50
2022-07-28T21:16:16.707Z,42.40
2022-07-28T21:18:20.844Z,42.70
2022-07-28T21:20:23.836Z,42.80
2022-07-28T21:22:26.673Z,42.70
2022-07-28T21:24:29.429Z,42.70
2022-07-28T21:26:32.170Z,42.70
2022-07-28T21:28:52.513Z,42.90
2022-07-28T21:30:55.248Z,42.90
2022-07-28T21:32:58.155Z,42.90
2022-07-28T21:35:02.268Z,42.90
2022-07-28T21:37:06.590Z,43.00
2022-07-28T21:39:10.559Z,43.10
2022-07-28T21:41:13.613Z,43.30
2022-07-28T21:43:16.627Z,43.30
2022-07-28T21:45:19.753Z,43.20
2022-07-28T21:47:22.468Z,43.30
2022-07-28T21:49:28.604Z,43.20
2022-07-28T21:51:32.940Z,43.40
2022-07-28T21:53:37.922Z,43.30
2022-07-28T21:55:40.826Z,43.20
2022-07-28T21:57:43.545Z,43.30
2022-07-28T21:59:49.211Z,43.20
2022-07-28T22:01:52.026Z,43.50
2022-07-28T22:03:55.617Z,43.40
2022-07-28T22:05:58.333Z,43.30
2022-07-28T22:08:02.396Z,43.60
2022-07-28T22:10:05.888Z,43.60
2022-07-28T22:12:09.789Z,43.70
2022-07-28T22:14:12.841Z,44.00
2022-07-28T22:16:16.102Z,44.10
2022-07-28T22:18:19.143Z,44.10
2022-07-28T22:20:23.054Z,44.00
2022-07-28T22:22:25.815Z,44.00
2022-07-28T22:24:29.911Z,44.00
2022-07-28T22:26:32.627Z,44.00
2022-07-28T22:28:35.591Z,44.00
2022-07-28T22:30:38.352Z,44.00
2022-07-28T22:32:41.411Z,44.20
2022-07-28T22:34:44.158Z,44.10
2022-07-28T22:36:46.913Z,44.20
2022-07-28T22:38:49.671Z,44.20
2022-07-28T22:40:53.726Z,44.30
2022-07-28T22:42:56.474Z,44.30
2022-07-28T22:44:59.227Z,44.40
2022-07-28T22:47:02.839Z,44.30
2022-07-28T22:49:05.679Z,44.50
2022-07-28T22:51:11.559Z,44.70
2022-07-28T22:53:14.304Z,44.80
2022-07-28T22:55:17.287Z,44.90
2022-07-28T22:57:21.481Z,44.80
2022-07-28T22:59:24.286Z,44.80
2022-07-28T23:01:28.003Z,44.80
2022-07-28T23:03:31.480Z,44.80
2022-07-28T23:05:34.276Z,44.90
2022-07-28T23:07:51.257Z,44.90
2022-07-28T23:09:59.992Z,44.90
2022-07-28T23:12:02.718Z,44.90
2022-07-28T23:14:06.805Z,45.20
2022-07-28T23:16:09.943Z,45.30
2022-07-28T23:18:13.972Z,45.50
2022-07-28T23:20:16.753Z,45.50
2022-07-28T23:22:19.465Z,45.50
2022-07-28T23:24:22.207Z,45.50
2022-07-28T23:26:24.934Z,45.50
2022-07-28T23:28:27.910Z,45.60
2022-07-28T23:30:32.051Z,45.80
2022-07-28T23:32:34.768Z,45.80
2022-07-28T23:34:37.871Z,46.00
2022-07-28T23:36:40.593Z,46.10
2022-07-28T23:38:43.326Z,46.00
2022-07-28T23:40:46.092Z,45.80
2022-07-28T23:42:49.279Z,45.80
2022-07-28T23:44:52.134Z,45.90
2022-07-28T23:46:56.382Z,45.80
2022-07-28T23:48:59.310Z,45.90
2022-07-28T23:51:02.070Z,45.80
2022-07-28T23:53:04.888Z,46.00
2022-07-28T23:55:08.549Z,45.90
2022-07-28T23:57:11.486Z,45.70
2022-07-28T23:59:14.860Z,45.70
